Time;durP1;ratioP1;P1;durP2;ratioP2;P2;SDS_P1;SDS_P2;PMS_P1;PMS_P2;Temp;Humidity;BMP_temperature;BMP_pressure;BME280_temperature;BME280_humidity;BME280_pressure;Samples;Min_cycle;Max_cycle;Signal;HPM_P1;HPM_P2
2022/10/03 00:01:19;;;;;;;7.53;3.50;;;11.00;99.90;;;;;;5075594;28;20253;-86
2022/10/03 00:03:55;;;;;;;6.47;3.35;;;11.10;99.90;;;;;;5085400;28;20207;-85
2022/10/03 00:06:41;;;;;;;3.63;1.83;;;11.20;99.90;;;;;;5068088;28;20229;-85
2022/10/03 00:09:46;;;;;;;7.57;2.75;;;11.20;99.90;;;;;;5078128;28;20218;-83
2022/10/03 00:12:41;;;;;;;4.40;3.03;;;11.30;99.90;;;;;;5068960;28;20199;-90
2022/10/03 00:15:25;;;;;;;6.55;2.55;;;11.30;99.90;;;;;;5080965;28;20210;-88
2022/10/03 00:18:09;;;;;;;4.50;2.90;;;11.30;99.90;;;;;;5065002;28;20198;-84
2022/10/03 00:21:06;;;;;;;4.43;2.45;;;11.20;99.90;;;;;;5086941;28;20190;-85
2022/10/03 00:23:46;;;;;;;7.38;2.72;;;11.30;99.90;;;;;;5066182;28;20171;-88
2022/10/03 00:26:32;;;;;;;5.22;3.17;;;11.30;99.90;;;;;;5205611;22;20231;-86
2022/10/03 00:29:45;;;;;;;4.40;2.88;;;11.30;99.90;;;;;;5062499;28;20217;-88
2022/10/03 00:32:44;;;;;;;5.93;2.80;;;11.30;99.90;;;;;;5053796;28;20203;-87
2022/10/03 00:35:38;;;;;;;4.60;2.90;;;11.20;99.90;;;;;;5079907;28;20203;-88
2022/10/03 00:38:40;;;;;;;4.38;2.35;;;11.10;99.90;;;;;;5067906;28;20210;-85
2022/10/03 00:41:19;;;;;;;7.88;3.83;;;11.00;99.90;;;;;;5059114;28;20203;-83
2022/10/03 00:44:23;;;;;;;5.40;2.33;;;10.90;99.90;;;;;;5309395;22;20327;-88
2022/10/03 00:46:58;;;;;;;3.83;2.67;;;10.80;99.90;;;;;;5052744;28;20202;-87
2022/10/03 00:49:31;;;;;;;9.32;3.50;;;10.80;99.90;;;;;;5062707;28;20223;-87
2022/10/03 00:52:35;;;;;;;6.55;4.28;;;10.80;99.90;;;;;;5052951;28;20480;-87
2022/10/03 00:55:29;;;;;;;6.53;3.05;;;10.80;99.90;;;;;;5041973;28;20183;-87
2022/10/03 00:58:43;;;;;;;13.13;3.42;;;10.70;99.90;;;;;;5060367;28;20211;-86
2022/10/03 01:01:26;;;;;;;4.43;2.40;;;10.70;99.90;;;;;;5038824;28;20222;-88
2022/10/03 01:04:09;;;;;;;4.90;3.55;;;10.70;99.90;;;;;;5050343;28;20186;-87
2022/10/03 01:06:44;;;;;;;5.72;2.60;;;10.70;99.90;;;;;;5041598;28;20210;-87
2022/10/03 01:09:26;;;;;;;7.00;3.13;;;10.70;99.90;;;;;;5064171;28;20232;-85
2022/10/03 01:12:05;;;;;;;7.45;3.17;;;10.70;99.90;;;;;;5047921;28;20198;-87
2022/10/03 01:14:48;;;;;;;2.92;2.20;;;10.70;99.90;;;;;;5063343;28;20199;-86
2022/10/03 01:17:56;;;;;;;6.18;2.65;;;10.70;99.90;;;;;;5069545;28;20206;-88
2022/10/03 01:20:42;;;;;;;5.93;2.30;;;10.80;99.90;;;;;;5046824;28;20249;-88
2022/10/03 01:23:49;;;;;;;9.82;2.72;;;10.70;99.90;;;;;;5045416;28;20194;-88
2022/10/03 01:26:54;;;;;;;6.30;2.47;;;10.60;99.90;;;;;;5034770;28;20554;-89
2022/10/03 01:30:29;;;;;;;7.25;2.63;;;10.60;99.90;;;;;;5059682;28;20257;-88
2022/10/03 01:32:44;;;;;;;5.93;3.25;;;10.60;99.90;;;;;;5042525;28;20244;-89
2022/10/03 01:35:39;;;;;;;9.45;3.50;;;10.60;99.90;;;;;;5056133;28;20276;-83
2022/10/03 01:38:43;;;;;;;5.53;2.35;;;10.60;99.90;;;;;;5058860;28;20272;-84
2022/10/03 01:41:36;;;;;;;7.47;3.28;;;10.70;99.90;;;;;;5052060;28;20210;-87
2022/10/03 01:44:23;;;;;;;4.63;2.83;;;10.80;99.90;;;;;;5053369;28;20226;-88
2022/10/03 01:47:30;;;;;;;8.55;2.95;;;10.90;99.90;;;;;;5056651;28;20195;-89
2022/10/03 01:50:11;;;;;;;7.40;2.78;;;10.90;99.90;;;;;;5048282;28;20207;-85
2022/10/03 01:52:55;;;;;;;7.10;3.30;;;11.00;99.90;;;;;;5057670;28;20515;-88
2022/10/03 01:55:45;;;;;;;5.55;3.40;;;11.00;99.90;;;;;;5055635;28;20280;-89
2022/10/03 01:58:21;;;;;;;12.02;3.95;;;11.00;99.90;;;;;;5059427;28;20226;-87
2022/10/03 02:01:00;;;;;;;7.50;3.63;;;11.00;99.90;;;;;;5060608;28;20225;-86
2022/10/03 02:03:35;;;;;;;6.95;3.10;;;11.00;99.90;;;;;;5061930;28;20211;-89
2022/10/03 02:06:31;;;;;;;10.32;3.60;;;11.00;99.90;;;;;;5056264;28;20231;-86
2022/10/03 02:09:24;;;;;;;6.43;2.30;;;11.00;99.90;;;;;;5059183;28;20219;-85
2022/10/03 02:12:12;;;;;;;7.55;2.72;;;11.10;99.90;;;;;;5055910;28;20211;-86
2022/10/03 02:14:50;;;;;;;5.88;3.20;;;11.20;99.90;;;;;;5056816;28;20217;-87
2022/10/03 02:17:29;;;;;;;6.95;3.10;;;11.20;99.90;;;;;;5136536;22;20279;-86
2022/10/03 02:20:35;;;;;;;5.70;2.55;;;11.20;99.90;;;;;;5083474;28;20202;-86
2022/10/03 02:23:24;;;;;;;5.82;3.55;;;11.20;99.90;;;;;;5082536;28;20202;-84
2022/10/03 02:26:24;;;;;;;9.38;2.92;;;11.20;99.90;;;;;;5078591;28;20234;-86
2022/10/03 02:29:19;;;;;;;6.20;2.80;;;11.20;99.90;;;;;;5069952;28;20252;-86
2022/10/03 02:31:58;;;;;;;5.07;3.42;;;11.20;99.90;;;;;;5082354;28;20375;-88
2022/10/03 02:35:02;;;;;;;6.43;2.85;;;11.20;99.90;;;;;;5082428;28;20205;-84
2022/10/03 02:38:08;;;;;;;3.60;2.53;;;11.30;99.90;;;;;;5076384;28;20206;-86
2022/10/03 02:41:24;;;;;;;4.65;3.22;;;11.30;99.90;;;;;;5018819;28;20194;-86
2022/10/03 02:44:21;;;;;;;15.13;3.40;;;11.30;99.90;;;;;;5026811;28;20208;-85
2022/10/03 02:47:27;;;;;;;5.43;2.88;;;11.30;99.90;;;;;;5091784;28;20222;-82
2022/10/03 02:50:14;;;;;;;7.80;4.35;;;11.30;99.90;;;;;;5075637;28;20209;-86
2022/10/03 02:53:14;;;;;;;4.60;3.85;;;11.30;99.90;;;;;;5070342;28;20253;-87
2022/10/03 02:56:14;;;;;;;6.75;3.63;;;11.40;99.90;;;;;;5202813;22;20238;-89
2022/10/03 02:58:51;;;;;;;9.75;4.38;;;11.40;99.90;;;;;;5066874;28;20271;-81
2022/10/03 03:01:51;;;;;;;7.15;3.78;;;11.40;99.90;;;;;;5044634;28;20212;-81
2022/10/03 03:05:02;;;;;;;8.55;3.65;;;11.40;99.90;;;;;;5059505;28;20234;-86
2022/10/03 03:08:06;;;;;;;5.95;3.40;;;11.40;99.90;;;;;;5063119;28;20204;-89
2022/10/03 03:11:03;;;;;;;5.57;3.13;;;11.40;99.90;;;;;;5049837;28;20575;-86
2022/10/03 03:14:09;;;;;;;7.75;4.15;;;11.40;99.90;;;;;;5059137;28;20237;-87
2022/10/03 03:16:48;;;;;;;7.50;3.70;;;11.40;99.90;;;;;;5045519;28;20200;-86
2022/10/03 03:19:45;;;;;;;11.55;3.35;;;11.40;99.90;;;;;;5031052;28;20625;-84
2022/10/03 03:22:51;;;;;;;3.67;3.35;;;11.30;99.90;;;;;;5063877;28;20278;-87
2022/10/03 03:25:37;;;;;;;11.98;4.50;;;11.30;99.90;;;;;;5067700;28;20223;-84
2022/10/03 03:28:52;;;;;;;12.45;3.95;;;11.20;99.90;;;;;;5067340;28;20211;-88
2022/10/03 03:31:25;;;;;;;8.45;3.92;;;11.20;99.90;;;;;;5059435;28;20206;-87
2022/10/03 03:34:38;;;;;;;10.73;3.92;;;11.20;99.90;;;;;;5077323;28;20203;-84
2022/10/03 03:37:43;;;;;;;8.60;3.53;;;11.20;99.90;;;;;;5412051;22;20304;-87
2022/10/03 03:40:42;;;;;;;14.48;4.20;;;11.30;99.90;;;;;;5087831;28;20566;-85
2022/10/03 03:43:47;;;;;;;6.38;3.75;;;11.30;99.90;;;;;;5077645;28;20188;-86
2022/10/03 03:46:57;;;;;;;5.40;3.85;;;11.30;99.90;;;;;;5046946;28;20223;-86
2022/10/03 03:50:05;;;;;;;10.02;4.50;;;11.30;99.90;;;;;;5151091;22;20257;-87
2022/10/03 03:53:12;;;;;;;8.77;3.70;;;11.20;99.90;;;;;;5085543;28;20548;-84
2022/10/03 03:58:44;;;;;;;7.35;3.30;;;11.20;99.90;;;;;;5037917;28;20197;-86
2022/10/03 04:01:44;;;;;;;4.72;2.95;;;11.20;99.90;;;;;;5038999;28;20191;-86
2022/10/03 04:07:23;;;;;;;7.72;4.15;;;11.10;99.90;;;;;;5029170;28;20240;-82
2022/10/03 04:10:26;;;;;;;4.95;2.72;;;11.10;99.90;;;;;;5028801;28;20196;-88
2022/10/03 04:13:12;;;;;;;10.23;3.20;;;11.10;99.90;;;;;;5020516;28;20221;-88
2022/10/03 04:19:36;;;;;;;7.10;3.63;;;11.10;99.90;;;;;;4993430;28;20209;-86
2022/10/03 04:22:21;;;;;;;8.88;5.00;;;11.20;99.90;;;;;;4998481;28;20213;-88
2022/10/03 04:25:07;;;;;;;8.10;3.33;;;11.30;99.90;;;;;;5022617;28;20227;-84
2022/10/03 04:28:09;;;;;;;8.25;3.10;;;11.20;99.90;;;;;;5034845;28;20192;-90
2022/10/03 04:31:01;;;;;;;6.32;3.28;;;11.20;99.90;;;;;;5016254;28;20251;-88
2022/10/03 04:33:44;;;;;;;8.10;4.70;;;11.20;99.90;;;;;;5026867;28;20268;-88
2022/10/03 04:36:55;;;;;;;12.52;3.75;;;11.20;99.90;;;;;;5030141;28;20224;-81
2022/10/03 04:39:44;;;;;;;12.15;3.17;;;11.20;99.90;;;;;;5017857;28;20209;-84
2022/10/03 04:42:15;;;;;;;11.65;3.22;;;11.30;99.90;;;;;;5031542;28;20689;-88
2022/10/03 04:45:16;;;;;;;8.05;3.15;;;11.30;99.90;;;;;;5025337;28;20207;-92
2022/10/03 04:48:21;;;;;;;7.72;3.45;;;11.30;99.90;;;;;;5022130;28;20213;-82
2022/10/03 04:51:07;;;;;;;11.85;3.65;;;11.30;99.90;;;;;;5022813;28;20251;-85
2022/10/03 04:54:01;;;;;;;9.60;3.88;;;11.30;99.90;;;;;;5028824;28;20447;-86
2022/10/03 04:57:00;;;;;;;11.88;2.92;;;11.30;99.90;;;;;;5020419;28;20201;-82
2022/10/03 04:59:47;;;;;;;8.80;2.38;;;11.40;99.90;;;;;;5011941;28;20209;-85
2022/10/03 05:02:17;;;;;;;3.30;2.55;;;11.40;99.90;;;;;;5023123;28;20267;-86
2022/10/03 05:05:09;;;;;;;4.63;2.20;;;11.40;99.90;;;;;;5023935;28;20205;-83
2022/10/03 05:07:56;;;;;;;6.47;2.53;;;11.40;99.90;;;;;;5020196;28;20258;-86
2022/10/03 05:10:38;;;;;;;4.63;3.38;;;11.40;99.90;;;;;;5021211;28;20217;-84
2022/10/03 05:13:21;;;;;;;5.85;3.83;;;11.40;99.90;;;;;;5019979;28;20235;-80
2022/10/03 05:16:27;;;;;;;6.85;3.17;;;11.40;99.90;;;;;;5013697;28;20213;-82
2022/10/03 05:19:04;;;;;;;8.02;4.05;;;11.30;99.90;;;;;;5015747;28;20223;-83
2022/10/03 05:21:56;;;;;;;15.15;5.10;;;11.20;99.90;;;;;;5009146;28;20212;-84
2022/10/03 05:24:44;;;;;;;4.97;4.05;;;11.10;99.90;;;;;;5013018;28;20205;-85
2022/10/03 05:27:23;;;;;;;6.70;4.47;;;11.00;99.90;;;;;;5019920;28;20237;-79
2022/10/03 05:29:58;;;;;;;9.77;5.07;;;10.90;99.90;;;;;;5020431;28;20216;-87
2022/10/03 05:32:50;;;;;;;9.57;5.70;;;10.90;99.90;;;;;;5021035;28;20204;-88
2022/10/03 05:35:27;;;;;;;11.30;5.43;;;11.00;99.90;;;;;;5019301;28;20216;-86
2022/10/03 05:38:14;;;;;;;8.25;4.60;;;11.00;99.90;;;;;;5019361;28;20399;-88
2022/10/03 05:41:08;;;;;;;7.53;3.90;;;11.00;99.90;;;;;;5016275;28;20220;-86
2022/10/03 05:44:06;;;;;;;8.50;4.00;;;11.10;99.90;;;;;;5029991;28;20206;-84
2022/10/03 05:46:59;;;;;;;9.93;3.85;;;11.20;99.90;;;;;;5034842;28;20238;-82
2022/10/03 05:50:08;;;;;;;9.48;3.53;;;11.20;99.90;;;;;;5035760;28;20192;-84
2022/10/03 05:52:59;;;;;;;6.15;3.53;;;11.30;99.90;;;;;;4970223;28;20435;-86
2022/10/03 05:56:03;;;;;;;14.23;4.28;;;11.50;99.90;;;;;;5017192;28;20384;-86
2022/10/03 05:58:54;;;;;;;9.80;3.25;;;11.60;99.90;;;;;;5022551;28;20207;-80
2022/10/03 06:02:01;;;;;;;8.10;4.00;;;11.60;99.90;;;;;;5007794;28;20253;-84
2022/10/03 06:04:57;;;;;;;5.03;3.15;;;11.60;99.90;;;;;;5014157;28;20240;-84
2022/10/03 06:07:30;;;;;;;5.05;3.25;;;11.30;99.90;;;;;;5017600;28;20425;-88
2022/10/03 06:10:03;;;;;;;12.50;4.25;;;11.20;99.90;;;;;;5014644;28;20204;-87
2022/10/03 06:13:07;;;;;;;9.15;4.53;;;11.10;99.90;;;;;;5023374;28;20208;-86
2022/10/03 06:16:13;;;;;;;11.88;4.25;;;11.00;99.90;;;;;;5016619;28;20207;-83
2022/10/03 06:19:06;;;;;;;6.65;3.78;;;11.00;99.90;;;;;;5000259;28;20569;-85
2022/10/03 06:22:09;;;;;;;10.23;4.07;;;11.00;99.90;;;;;;5016614;28;20205;-81
2022/10/03 06:24:45;;;;;;;13.98;5.30;;;11.00;99.90;;;;;;5025143;28;20216;-86
2022/10/03 06:27:32;;;;;;;9.52;5.63;;;11.10;99.90;;;;;;5027003;28;20239;-80
2022/10/03 06:30:21;;;;;;;11.00;4.70;;;11.20;99.90;;;;;;5033232;28;20235;-83
2022/10/03 06:33:03;;;;;;;6.30;4.35;;;11.30;99.90;;;;;;5042093;28;20693;-85
2022/10/03 06:35:59;;;;;;;7.60;4.90;;;11.30;99.90;;;;;;5021834;28;20255;-86
2022/10/03 06:39:14;;;;;;;18.00;5.72;;;11.30;99.90;;;;;;5023692;28;20296;-82
2022/10/03 06:42:11;;;;;;;10.07;3.22;;;11.40;99.90;;;;;;5036484;28;20204;-80
2022/10/03 06:45:06;;;;;;;4.55;3.20;;;11.30;99.90;;;;;;5033829;28;20451;-86
2022/10/03 06:48:01;;;;;;;4.68;3.33;;;11.30;99.90;;;;;;5036698;28;20255;-83
2022/10/03 06:51:06;;;;;;;9.23;3.15;;;11.40;99.90;;;;;;5036355;28;20227;-83
2022/10/03 06:54:10;;;;;;;6.78;3.20;;;11.50;99.90;;;;;;5032776;28;20231;-85
2022/10/03 06:57:03;;;;;;;5.93;2.80;;;11.50;99.90;;;;;;5043771;28;20207;-84
2022/10/03 06:59:55;;;;;;;13.13;4.40;;;11.50;99.90;;;;;;5029117;28;20204;-82
2022/10/03 07:02:51;;;;;;;3.90;3.08;;;11.30;99.90;;;;;;5025189;28;20204;-84
2022/10/03 07:05:47;;;;;;;5.60;3.10;;;11.40;99.90;;;;;;5025938;28;20216;-85
2022/10/03 07:08:44;;;;;;;8.07;3.55;;;11.60;99.90;;;;;;5017629;28;20249;-82
2022/10/03 07:11:48;;;;;;;4.60;2.95;;;11.70;99.90;;;;;;5035447;28;20259;-82
2022/10/03 07:14:49;;;;;;;8.90;2.80;;;11.70;99.90;;;;;;5024760;28;20558;-83
2022/10/03 07:17:42;;;;;;;10.25;2.90;;;11.80;99.90;;;;;;5018962;28;20219;-87
2022/10/03 07:20:43;;;;;;;12.35;4.82;;;11.80;99.90;;;;;;5025532;28;20197;-82
2022/10/03 07:23:52;;;;;;;6.00;2.63;;;11.80;99.90;;;;;;5023507;28;20400;-89
2022/10/03 07:26:38;;;;;;;5.45;2.55;;;11.90;99.90;;;;;;5020674;28;20255;-86
2022/10/03 07:29:26;;;;;;;4.22;1.90;;;12.00;99.90;;;;;;5021423;28;20251;-83
2022/10/03 07:32:10;;;;;;;6.68;2.90;;;12.10;99.90;;;;;;5015121;28;20220;-84
2022/10/03 07:38:56;;;;;;;4.07;2.40;;;12.30;99.90;;;;;;5026611;28;20212;-82
2022/10/03 07:38:59;;;;;;;8.32;2.70;;;12.20;99.90;;;;;;5017785;28;20208;-85
2022/10/03 07:41:44;;;;;;;2.35;2.13;;;12.20;99.90;;;;;;5019190;28;20290;-84
2022/10/03 07:44:35;;;;;;;2.95;1.80;;;12.10;99.90;;;;;;5013892;28;20678;-83
2022/10/03 07:47:32;;;;;;;4.53;2.67;;;12.10;99.90;;;;;;5032384;28;20220;-85
2022/10/03 07:49:59;;;;;;;3.00;2.03;;;12.20;99.90;;;;;;5046861;28;20185;-83
2022/10/03 07:53:02;;;;;;;5.50;2.30;;;12.20;99.90;;;;;;5046142;28;20188;-87
2022/10/03 07:55:41;;;;;;;5.32;2.90;;;12.00;99.90;;;;;;5037442;28;20200;-85
2022/10/03 08:01:03;;;;;;;3.75;2.60;;;11.80;99.90;;;;;;4994473;28;20293;-87
2022/10/03 08:03:55;;;;;;;6.63;3.00;;;11.70;99.90;;;;;;5013902;28;20201;-86
2022/10/03 08:06:38;;;;;;;6.18;2.85;;;11.60;99.90;;;;;;5012295;28;20281;-84
2022/10/03 08:09:19;;;;;;;8.95;3.00;;;11.50;99.90;;;;;;5003366;28;20525;-86
2022/10/03 08:11:55;;;;;;;5.85;3.25;;;11.60;99.90;;;;;;4996001;28;20209;-81
2022/10/03 08:14:56;;;;;;;2.58;2.38;;;11.80;99.90;;;;;;4996477;28;20572;-89
2022/10/03 08:17:51;;;;;;;3.28;2.70;;;12.10;99.90;;;;;;5003506;28;20393;-85
2022/10/03 08:20:39;;;;;;;2.78;2.50;;;12.20;99.90;;;;;;4998501;28;20358;-86
2022/10/03 08:23:23;;;;;;;3.65;2.53;;;12.10;99.90;;;;;;4996253;28;20210;-84
2022/10/03 08:26:38;;;;;;;3.30;2.13;;;12.10;99.90;;;;;;5002069;28;20229;-87
2022/10/03 08:29:27;;;;;;;4.95;2.33;;;12.30;99.90;;;;;;4994544;28;20515;-84
2022/10/03 08:32:10;;;;;;;2.55;2.00;;;12.40;99.90;;;;;;5001186;28;20241;-86
2022/10/03 08:35:19;;;;;;;4.28;3.00;;;12.20;99.90;;;;;;4990092;28;20576;-86
2022/10/03 08:38:22;;;;;;;3.70;2.60;;;12.10;99.90;;;;;;5016914;28;20264;-82
2022/10/03 08:41:24;;;;;;;2.30;2.10;;;12.00;99.90;;;;;;4991021;28;20272;-84
2022/10/03 08:44:28;;;;;;;3.08;2.33;;;12.10;99.90;;;;;;4998856;28;20206;-83
2022/10/03 08:47:30;;;;;;;2.55;1.65;;;12.30;99.90;;;;;;5003265;28;20233;-84
2022/10/03 08:50:06;;;;;;;5.03;1.80;;;12.30;99.90;;;;;;5011435;28;20197;-82
2022/10/03 08:53:21;;;;;;;2.97;2.22;;;12.30;99.90;;;;;;5013648;28;20213;-84
2022/10/03 08:56:16;;;;;;;2.83;1.92;;;12.40;99.90;;;;;;5002843;28;20182;-79
2022/10/03 08:59:12;;;;;;;2.50;1.60;;;12.30;99.90;;;;;;5013931;28;20197;-83
2022/10/03 09:02:01;;;;;;;9.13;3.10;;;12.30;99.90;;;;;;5012322;28;20209;-83
2022/10/03 09:05:14;;;;;;;5.45;2.20;;;12.30;99.90;;;;;;5010515;28;20205;-86
2022/10/03 09:07:54;;;;;;;6.93;2.08;;;12.50;99.90;;;;;;4995188;28;20230;-82
2022/10/03 09:10:58;;;;;;;4.38;1.40;;;12.60;99.90;;;;;;5001771;28;20279;-81
2022/10/03 09:13:48;;;;;;;2.65;1.90;;;12.60;99.90;;;;;;4992991;28;20537;-85
2022/10/03 09:16:36;;;;;;;5.28;2.33;;;12.60;99.90;;;;;;5001594;28;20212;-88
2022/10/03 09:19:33;;;;;;;5.93;2.40;;;12.50;99.90;;;;;;4994337;28;20248;-82
2022/10/03 09:22:21;;;;;;;4.20;2.90;;;12.60;99.90;;;;;;4995327;28;20212;-84
2022/10/03 09:25:22;;;;;;;2.60;2.40;;;13.00;99.90;;;;;;4999911;28;20209;-84
2022/10/03 09:28:07;;;;;;;3.30;2.10;;;13.50;99.90;;;;;;5001472;28;20261;-82
2022/10/03 09:31:03;;;;;;;5.65;2.50;;;13.90;99.90;;;;;;5003003;28;20252;-84
2022/10/03 09:34:17;;;;;;;7.63;1.88;;;14.10;99.90;;;;;;4996012;28;20329;-85
2022/10/03 09:37:25;;;;;;;2.28;1.88;;;14.00;99.90;;;;;;4999527;28;20237;-84
2022/10/03 09:40:08;;;;;;;6.15;1.95;;;13.90;99.90;;;;;;5017087;28;20198;-86
2022/10/03 09:42:43;;;;;;;4.00;1.58;;;13.70;99.90;;;;;;5001491;28;20722;-84
2022/10/03 09:45:30;;;;;;;5.07;2.13;;;13.90;99.90;;;;;;5000881;28;20548;-80
2022/10/03 09:48:14;;;;;;;3.22;1.60;;;14.00;99.90;;;;;;4991897;28;20273;-87
2022/10/03 09:51:09;;;;;;;0.98;0.98;;;14.10;99.90;;;;;;4995898;28;20212;-83
2022/10/03 09:54:10;;;;;;;8.77;2.10;;;14.20;99.90;;;;;;4999915;28;20225;-84
2022/10/03 09:56:59;;;;;;;3.25;2.72;;;14.40;99.90;;;;;;4990756;28;20234;-86
2022/10/03 09:59:51;;;;;;;4.32;2.28;;;14.40;99.90;;;;;;4999152;28;20218;-83
2022/10/03 10:02:56;;;;;;;3.75;1.80;;;14.50;99.90;;;;;;4997188;28;20238;-85
2022/10/03 10:05:45;;;;;;;8.27;2.22;;;14.50;99.90;;;;;;4997796;28;20203;-85
2022/10/03 10:08:21;;;;;;;3.00;1.50;;;14.80;99.90;;;;;;4989065;28;20216;-85
2022/10/03 10:11:25;;;;;;;5.53;2.00;;;14.90;99.90;;;;;;5000472;28;20249;-85
2022/10/03 10:14:23;;;;;;;4.60;2.00;;;14.80;99.90;;;;;;4999612;28;20460;-86
2022/10/03 10:17:15;;;;;;;4.23;1.40;;;14.90;99.90;;;;;;4994625;28;20215;-82
2022/10/03 10:20:11;;;;;;;2.77;1.50;;;15.20;99.90;;;;;;5015111;28;20436;-87
2022/10/03 10:23:15;;;;;;;2.78;1.20;;;15.00;99.90;;;;;;5008168;28;20530;-84
2022/10/03 10:26:18;;;;;;;3.37;1.57;;;14.90;99.90;;;;;;4991803;28;20200;-85
2022/10/03 10:29:02;;;;;;;2.03;1.23;;;15.00;99.90;;;;;;4988180;28;20445;-83
2022/10/03 10:32:10;;;;;;;1.60;1.30;;;14.80;99.90;;;;;;4998612;28;20467;-81
2022/10/03 10:35:15;;;;;;;1.50;1.40;;;14.70;99.90;;;;;;5000173;28;20498;-86
2022/10/03 10:37:53;;;;;;;3.22;1.40;;;14.40;99.90;;;;;;4999512;28;20207;-85
2022/10/03 10:40:55;;;;;;;1.25;0.95;;;14.20;99.90;;;;;;5014839;28;20216;-87
2022/10/03 10:43:58;;;;;;;5.82;2.30;;;14.10;99.90;;;;;;4998658;28;20202;-84
2022/10/03 10:46:59;;;;;;;3.55;1.40;;;14.20;99.90;;;;;;4999780;28;20211;-83
2022/10/03 10:50:04;;;;;;;1.40;1.35;;;14.20;99.90;;;;;;4996442;28;20250;-82
2022/10/03 10:53:08;;;;;;;4.80;1.65;;;14.00;99.90;;;;;;4995682;28;20253;-84
2022/10/03 10:55:55;;;;;;;3.70;1.42;;;14.00;99.90;;;;;;4999564;28;20203;-85
2022/10/03 10:58:56;;;;;;;2.80;2.60;;;13.80;99.90;;;;;;4996669;28;20214;-83
2022/10/03 11:02:04;;;;;;;3.20;2.10;;;13.70;99.90;;;;;;4996921;28;20204;-83
2022/10/03 11:05:14;;;;;;;1.98;1.35;;;13.30;99.90;;;;;;4994322;28;20211;-81
2022/10/03 11:08:28;;;;;;;4.60;1.75;;;13.20;99.90;;;;;;4997575;28;20215;-85
2022/10/03 11:11:32;;;;;;;4.13;2.25;;;12.80;99.90;;;;;;4995259;28;20198;-88
2022/10/03 11:14:23;;;;;;;7.18;2.65;;;12.70;99.90;;;;;;5015022;28;20237;-85
2022/10/03 11:17:16;;;;;;;4.72;1.75;;;12.80;99.90;;;;;;5002658;28;20213;-87
2022/10/03 11:20:26;;;;;;;8.18;2.20;;;12.90;99.90;;;;;;5005391;28;20201;-84
2022/10/03 11:23:15;;;;;;;2.67;2.47;;;13.30;99.90;;;;;;4999438;28;20395;-85
2022/10/03 11:25:54;;;;;;;3.67;1.88;;;13.40;99.90;;;;;;4996443;28;20278;-85
2022/10/03 11:29:04;;;;;;;2.67;1.70;;;13.70;99.90;;;;;;5003359;28;20350;-81
2022/10/03 11:32:13;;;;;;;4.03;1.60;;;13.50;99.90;;;;;;5015090;28;20190;-84
2022/10/03 11:35:01;;;;;;;5.78;2.03;;;13.00;99.90;;;;;;5017890;28;20217;-82
2022/10/03 11:37:57;;;;;;;3.47;2.00;;;12.70;99.90;;;;;;5158289;22;20240;-87
2022/10/03 11:40:46;;;;;;;4.88;1.80;;;12.60;99.90;;;;;;5198256;22;20258;-87
2022/10/03 11:43:53;;;;;;;3.72;1.52;;;12.50;99.90;;;;;;5062065;28;20191;-83
2022/10/03 11:46:47;;;;;;;4.10;3.20;;;12.30;99.90;;;;;;5064226;28;20246;-84
2022/10/03 11:49:25;;;;;;;2.78;2.58;;;12.20;99.90;;;;;;5062961;28;20239;-87
2022/10/03 11:52:20;;;;;;;6.90;2.75;;;12.20;99.90;;;;;;5051836;28;20444;-87
2022/10/03 11:55:00;;;;;;;2.05;1.85;;;12.20;99.90;;;;;;5051585;28;20203;-86
2022/10/03 11:57:35;;;;;;;5.88;2.90;;;12.30;99.90;;;;;;5059843;28;20203;-86
2022/10/03 12:00:20;;;;;;;5.13;2.92;;;12.10;99.90;;;;;;5062734;28;20267;-82
2022/10/03 12:02:50;;;;;;;3.78;2.58;;;12.30;99.90;;;;;;5058347;28;20203;-86
2022/10/03 12:08:53;;;;;;;3.58;2.88;;;12.30;99.90;;;;;;5057995;28;20200;-83
2022/10/03 12:09:16;;;;;;;5.20;2.83;;;12.30;99.90;;;;;;5054754;28;20218;-87
2022/10/03 12:12:05;;;;;;;5.10;3.63;;;12.20;99.90;;;;;;5056397;28;20207;-81
2022/10/03 12:14:45;;;;;;;9.27;3.53;;;12.10;99.90;;;;;;5059892;28;20282;-86
2022/10/03 12:17:30;;;;;;;5.50;3.05;;;12.10;99.90;;;;;;5038626;28;20212;-84
2022/10/03 12:20:22;;;;;;;4.53;2.70;;;12.00;99.90;;;;;;5058930;28;20290;-86
2022/10/03 12:23:08;;;;;;;7.88;3.72;;;12.00;99.90;;;;;;5057818;28;20199;-85
2022/10/03 12:25:41;;;;;;;3.72;3.30;;;12.00;99.90;;;;;;5060604;28;20207;-83
2022/10/03 12:28:23;;;;;;;4.75;3.53;;;12.10;99.90;;;;;;5057877;28;20227;-83
2022/10/03 12:31:05;;;;;;;4.45;3.17;;;12.30;99.90;;;;;;5051672;28;20245;-82
2022/10/03 12:33:52;;;;;;;5.32;3.00;;;12.30;99.90;;;;;;5070517;28;20191;-84
2022/10/03 12:37:07;;;;;;;5.38;3.40;;;12.30;99.90;;;;;;5056782;28;20247;-83
2022/10/03 12:39:54;;;;;;;5.35;3.63;;;12.50;99.90;;;;;;5050740;28;20220;-84
2022/10/03 12:42:57;;;;;;;4.40;2.97;;;12.60;99.90;;;;;;5059298;28;20203;-81
2022/10/03 12:45:42;;;;;;;6.60;3.15;;;12.60;99.90;;;;;;5058331;28;20199;-85
2022/10/03 12:48:46;;;;;;;6.85;4.55;;;12.60;99.90;;;;;;5054276;28;20491;-85
2022/10/03 12:51:34;;;;;;;4.78;2.75;;;12.60;99.90;;;;;;5047848;28;20216;-88
2022/10/03 12:54:23;;;;;;;5.18;3.30;;;12.50;99.90;;;;;;5052114;28;20211;-86
2022/10/03 12:57:22;;;;;;;4.28;2.90;;;12.60;99.90;;;;;;5045956;28;20215;-85
2022/10/03 13:00:19;;;;;;;7.10;4.25;;;12.80;99.90;;;;;;5049766;28;20208;-85
2022/10/03 13:03:20;;;;;;;3.33;2.80;;;13.00;99.90;;;;;;5058575;28;20214;-84
2022/10/03 13:06:06;;;;;;;9.90;3.88;;;13.00;99.90;;;;;;5061267;28;20207;-86
2022/10/03 13:08:58;;;;;;;7.85;3.53;;;13.00;99.90;;;;;;5051286;28;20266;-89
2022/10/03 13:11:35;;;;;;;4.05;2.72;;;13.10;99.90;;;;;;5042967;28;20204;-83
2022/10/03 13:14:37;;;;;;;6.00;3.20;;;13.30;99.90;;;;;;5058989;28;20196;-84
2022/10/03 13:17:58;;;;;;;10.05;3.05;;;13.60;99.90;;;;;;5054044;28;20210;-85
2022/10/03 13:20:33;;;;;;;5.72;2.92;;;13.60;99.90;;;;;;5047635;28;20234;-84
2022/10/03 13:23:27;;;;;;;4.72;2.72;;;13.60;99.90;;;;;;5054960;28;20249;-83
2022/10/03 13:26:07;;;;;;;5.78;2.80;;;13.60;99.90;;;;;;5055137;28;20226;-86
2022/10/03 13:29:01;;;;;;;5.65;2.17;;;13.70;99.90;;;;;;5056945;28;20244;-87
2022/10/03 13:31:55;;;;;;;2.78;1.85;;;13.70;99.90;;;;;;5050103;28;20192;-87
2022/10/03 13:34:29;;;;;;;8.82;2.97;;;13.80;99.90;;;;;;5055852;28;20249;-86
2022/10/03 13:37:10;;;;;;;5.45;2.45;;;13.70;99.90;;;;;;5052411;28;20196;-87
2022/10/03 13:39:48;;;;;;;4.28;2.08;;;13.80;99.90;;;;;;5060702;28;20733;-85
2022/10/03 13:42:33;;;;;;;5.03;2.65;;;13.60;99.90;;;;;;5059786;28;20249;-89
2022/10/03 13:45:25;;;;;;;4.55;2.38;;;13.50;99.90;;;;;;5072787;28;20199;-82
2022/10/03 13:48:10;;;;;;;8.82;2.88;;;13.50;99.90;;;;;;5075437;28;20203;-87
2022/10/03 13:50:48;;;;;;;6.68;2.20;;;13.40;99.90;;;;;;5075048;28;20221;-82
2022/10/03 13:53:51;;;;;;;5.32;2.63;;;13.40;99.90;;;;;;5065868;28;20179;-83
2022/10/03 13:56:54;;;;;;;5.13;3.00;;;13.50;99.90;;;;;;5051942;28;20247;-85
2022/10/03 13:59:46;;;;;;;4.35;3.28;;;13.60;99.90;;;;;;5062310;28;20204;-86
2022/10/03 14:02:42;;;;;;;4.88;2.20;;;13.60;99.90;;;;;;5057823;28;20207;-85
2022/10/03 14:05:34;;;;;;;2.70;2.35;;;13.50;99.90;;;;;;5057467;28;20208;-86
2022/10/03 14:08:29;;;;;;;4.65;2.30;;;13.50;99.90;;;;;;5050322;28;20274;-84
2022/10/03 14:11:39;;;;;;;6.15;3.22;;;13.50;99.90;;;;;;5059509;28;20266;-83
2022/10/03 14:14:34;;;;;;;4.88;2.17;;;13.50;99.90;;;;;;5061760;28;20207;-85
2022/10/03 14:17:22;;;;;;;6.47;2.95;;;13.40;99.90;;;;;;5063726;28;20207;-82
2022/10/03 14:20:09;;;;;;;1.85;1.63;;;13.40;99.90;;;;;;5070714;28;20191;-85
2022/10/03 14:23:00;;;;;;;4.82;2.42;;;13.40;99.90;;;;;;5071198;28;20211;-87
2022/10/03 14:25:33;;;;;;;5.80;1.70;;;13.40;99.90;;;;;;5066891;28;20306;-85
2022/10/03 14:28:37;;;;;;;3.90;2.08;;;13.30;99.90;;;;;;5067030;28;20215;-86
2022/10/03 14:31:38;;;;;;;4.00;2.45;;;13.30;99.90;;;;;;4995106;28;20266;-87
2022/10/03 14:34:33;;;;;;;4.53;1.90;;;13.20;99.90;;;;;;5115979;22;20240;-85
2022/10/03 14:37:30;;;;;;;2.17;1.98;;;13.30;99.90;;;;;;5034208;28;20188;-83
2022/10/03 14:40:16;;;;;;;4.15;2.45;;;13.20;99.90;;;;;;5036651;28;20242;-83
2022/10/03 14:42:59;;;;;;;5.43;2.83;;;13.30;99.90;;;;;;5034058;28;20251;-85
2022/10/03 14:45:40;;;;;;;5.60;2.90;;;13.30;99.90;;;;;;5170040;23;20235;-86
2022/10/03 14:51:20;;;;;;;5.72;1.80;;;13.60;99.90;;;;;;5049483;22;20245;-87
2022/10/03 14:54:01;;;;;;;2.33;1.58;;;13.70;99.90;;;;;;4999493;28;20265;-87
2022/10/03 14:56:41;;;;;;;3.15;2.03;;;13.80;99.90;;;;;;5006340;28;20228;-85
2022/10/03 14:59:18;;;;;;;4.70;1.58;;;13.90;99.90;;;;;;4998506;28;20248;-84
2022/10/03 15:07:06;;;;;;;2.88;1.83;;;14.10;99.90;;;;;;5083332;23;20717;-83
2022/10/03 15:09:49;;;;;;;3.80;1.88;;;14.10;99.90;;;;;;5008839;28;20250;-88
2022/10/03 15:12:23;;;;;;;3.58;1.88;;;14.10;99.90;;;;;;5011138;28;20214;-85
2022/10/03 15:15:01;;;;;;;7.60;2.35;;;14.00;99.90;;;;;;5014150;28;20202;-83
2022/10/03 15:17:31;;;;;;;4.57;1.83;;;13.90;99.90;;;;;;5018472;28;20241;-88